Time;durP1;ratioP1;P1;durP2;ratioP2;P2;SDS_P1;SDS_P2;PMS_P1;PMS_P2;Temp;Humidity;BMP_temperature;BMP_pressure;BME280_temperature;BME280_humidity;BME280_pressure;Samples;Min_cycle;Max_cycle;Signal;HPM_P1;HPM_P2
2023/04/03 00:01:06;;;;;;;10.50;9.80;;;;;;;;;;5015432;28;20041;-47
2023/04/03 00:03:32;;;;;;;10.35;9.75;;;;;;;;;;5014917;28;20226;-50
2023/04/03 00:05:58;;;;;;;10.40;9.70;;;;;;;;;;5013228;28;20033;-49
2023/04/03 00:08:23;;;;;;;9.65;9.05;;;;;;;;;;5014323;28;20029;-48
2023/04/03 00:10:49;;;;;;;10.13;9.52;;;;;;;;;;5016085;28;20596;-49
2023/04/03 00:13:15;;;;;;;10.95;10.20;;;;;;;;;;5017468;28;20100;-51
2023/04/03 00:15:41;;;;;;;11.13;9.40;;;;;;;;;;5017697;28;20099;-50
2023/04/03 00:18:07;;;;;;;10.55;9.75;;;;;;;;;;5011871;28;20047;-49
2023/04/03 00:20:33;;;;;;;10.70;10.02;;;;;;;;;;5010336;28;20105;-48
2023/04/03 00:22:59;;;;;;;10.35;9.75;;;;;;;;;;5012331;28;20460;-51
2023/04/03 00:25:24;;;;;;;10.25;9.65;;;;;;;;;;5013080;28;20402;-49
2023/04/03 00:27:51;;;;;;;9.98;9.38;;;;;;;;;;5015129;28;20072;-53
2023/04/03 00:30:19;;;;;;;10.30;9.68;;;;;;;;;;5012135;28;20045;-51
2023/04/03 00:32:44;;;;;;;10.55;9.95;;;;;;;;;;5011646;28;20029;-50
2023/04/03 00:35:10;;;;;;;10.20;9.50;;;;;;;;;;5012939;28;20052;-49
2023/04/03 00:37:36;;;;;;;10.43;9.82;;;;;;;;;;5012117;28;20629;-52
2023/04/03 00:40:02;;;;;;;9.55;8.95;;;;;;;;;;5009904;28;20037;-49
2023/04/03 00:42:28;;;;;;;10.23;9.63;;;;;;;;;;5012176;28;20034;-53
2023/04/03 00:44:56;;;;;;;11.35;10.65;;;;;;;;;;5015439;28;20044;-49
2023/04/03 00:47:22;;;;;;;10.68;9.98;;;;;;;;;;5015082;28;20053;-52
2023/04/03 00:49:49;;;;;;;10.05;9.45;;;;;;;;;;5014953;28;20073;-48
2023/04/03 00:52:17;;;;;;;9.20;8.60;;;;;;;;;;5015337;28;20491;-49
2023/04/03 00:54:45;;;;;;;10.25;9.63;;;;;;;;;;5013852;28;20044;-50
2023/04/03 00:57:11;;;;;;;9.63;9.02;;;;;;;;;;5012691;28;20042;-49
2023/04/03 00:59:44;;;;;;;9.90;9.30;;;;;;;;;;5013936;28;20037;-48
2023/04/03 01:02:09;;;;;;;9.93;9.32;;;;;;;;;;5011977;28;20048;-52
2023/04/03 01:04:40;;;;;;;10.02;9.43;;;;;;;;;;5015319;28;20021;-52
2023/04/03 01:07:28;;;;;;;10.30;9.70;;;;;;;;;;5014211;28;20037;-51
2023/04/03 01:09:58;;;;;;;10.88;10.15;;;;;;;;;;5011822;28;20048;-49
2023/04/03 01:12:32;;;;;;;11.27;10.57;;;;;;;;;;5012514;28;20022;-51
2023/04/03 01:15:10;;;;;;;10.30;9.70;;;;;;;;;;5012138;28;20044;-48
2023/04/03 01:17:42;;;;;;;10.13;9.52;;;;;;;;;;5010996;28;20029;-48
2023/04/03 01:20:31;;;;;;;10.02;9.40;;;;;;;;;;5010217;28;20102;-47
2023/04/03 01:23:09;;;;;;;10.43;9.77;;;;;;;;;;5018088;28;20034;-48
2023/04/03 01:25:38;;;;;;;10.38;9.68;;;;;;;;;;5012501;28;20037;-51
2023/04/03 01:28:05;;;;;;;26.85;9.95;;;;;;;;;;5014507;28;20046;-47
2023/04/03 01:30:35;;;;;;;9.57;8.98;;;;;;;;;;5010498;28;20041;-49
2023/04/03 01:33:01;;;;;;;10.37;9.77;;;;;;;;;;5013203;28;20128;-50
2023/04/03 01:35:26;;;;;;;10.10;9.48;;;;;;;;;;5012084;28;20460;-48
2023/04/03 01:37:52;;;;;;;9.98;9.32;;;;;;;;;;5019553;28;20033;-52
2023/04/03 01:40:17;;;;;;;10.07;9.48;;;;;;;;;;5010156;28;20373;-48
2023/04/03 01:42:42;;;;;;;9.68;9.07;;;;;;;;;;5011341;28;20062;-48
2023/04/03 01:45:09;;;;;;;10.05;9.32;;;;;;;;;;5015982;28;20033;-53
2023/04/03 01:47:34;;;;;;;10.73;10.10;;;;;;;;;;5018723;28;20387;-51
2023/04/03 01:49:59;;;;;;;9.93;9.32;;;;;;;;;;5011888;28;20120;-49
2023/04/03 01:52:25;;;;;;;10.10;9.50;;;;;;;;;;5012698;28;20049;-48
2023/04/03 01:54:50;;;;;;;10.48;9.77;;;;;;;;;;5010779;28;20088;-48
2023/04/03 01:57:16;;;;;;;10.15;9.55;;;;;;;;;;5011594;28;20464;-48
2023/04/03 01:59:41;;;;;;;9.75;9.15;;;;;;;;;;5011807;28;20030;-49
2023/04/03 02:02:07;;;;;;;9.57;8.98;;;;;;;;;;5009008;28;20040;-48
2023/04/03 02:04:32;;;;;;;10.35;9.75;;;;;;;;;;5008486;28;20518;-49
2023/04/03 02:06:58;;;;;;;9.40;8.80;;;;;;;;;;5013511;28;20113;-50
2023/04/03 02:09:23;;;;;;;10.57;9.98;;;;;;;;;;5010668;28;20119;-52
2023/04/03 02:11:49;;;;;;;10.48;9.88;;;;;;;;;;5020021;28;20029;-51
2023/04/03 02:14:14;;;;;;;10.35;9.75;;;;;;;;;;5008577;28;20372;-51
2023/04/03 02:16:40;;;;;;;10.25;9.65;;;;;;;;;;5011263;28;20843;-49
2023/04/03 02:19:05;;;;;;;9.43;8.82;;;;;;;;;;5014489;28;20218;-48
2023/04/03 02:21:30;;;;;;;9.65;9.05;;;;;;;;;;5013306;28;20571;-47
2023/04/03 02:23:56;;;;;;;9.93;9.32;;;;;;;;;;5015952;28;20084;-47
2023/04/03 02:26:21;;;;;;;9.85;9.25;;;;;;;;;;5011394;28;20059;-49
2023/04/03 02:28:47;;;;;;;10.60;9.95;;;;;;;;;;5014179;28;20048;-46
2023/04/03 02:31:12;;;;;;;10.00;9.40;;;;;;;;;;5011278;28;20107;-46
2023/04/03 02:33:37;;;;;;;10.38;9.77;;;;;;;;;;5013073;28;20033;-47
2023/04/03 02:36:07;;;;;;;9.65;9.05;;;;;;;;;;5011374;28;20677;-49
2023/04/03 02:38:32;;;;;;;10.85;10.15;;;;;;;;;;5015894;28;20033;-49
2023/04/03 02:41:05;;;;;;;10.57;9.98;;;;;;;;;;5014787;28;20570;-49
2023/04/03 02:43:31;;;;;;;11.25;10.55;;;;;;;;;;5010516;28;20033;-50
2023/04/03 02:45:56;;;;;;;10.15;9.55;;;;;;;;;;5010604;28;20443;-50
2023/04/03 02:48:22;;;;;;;10.55;9.95;;;;;;;;;;5010676;28;20044;-51
2023/04/03 02:50:48;;;;;;;10.43;9.82;;;;;;;;;;5012136;28;20033;-52
2023/04/03 02:53:13;;;;;;;10.68;9.88;;;;;;;;;;5012058;28;20048;-49
2023/04/03 02:55:39;;;;;;;10.63;9.93;;;;;;;;;;5010935;28;20646;-50
2023/04/03 02:58:04;;;;;;;10.27;9.68;;;;;;;;;;5011177;28;20044;-51
2023/04/03 03:00:30;;;;;;;10.30;9.60;;;;;;;;;;5011887;28;20119;-48
2023/04/03 03:02:55;;;;;;;10.70;10.00;;;;;;;;;;5013204;28;20072;-47
2023/04/03 03:05:21;;;;;;;9.85;9.25;;;;;;;;;;5013858;28;20056;-52
2023/04/03 03:07:47;;;;;;;9.73;9.13;;;;;;;;;;5013703;28;20116;-51
2023/04/03 03:10:13;;;;;;;10.55;9.95;;;;;;;;;;5013899;28;20088;-49
2023/04/03 03:12:38;;;;;;;9.88;9.27;;;;;;;;;;5015092;28;20029;-47
2023/04/03 03:15:04;;;;;;;10.45;9.85;;;;;;;;;;5014003;28;20034;-46
2023/04/03 03:17:30;;;;;;;10.15;9.55;;;;;;;;;;5016394;28;20050;-46
2023/04/03 03:19:55;;;;;;;9.90;9.30;;;;;;;;;;5016032;28;20033;-47
2023/04/03 03:22:20;;;;;;;10.38;9.77;;;;;;;;;;5014253;28;20084;-47
2023/04/03 03:24:46;;;;;;;11.25;10.48;;;;;;;;;;5015404;28;20061;-49
2023/04/03 03:27:12;;;;;;;9.73;9.13;;;;;;;;;;5015837;28;20471;-48
2023/04/03 03:29:37;;;;;;;10.07;9.40;;;;;;;;;;5014902;28;20427;-50
2023/04/03 03:32:03;;;;;;;9.98;9.38;;;;;;;;;;5017789;28;20621;-49
2023/04/03 03:34:28;;;;;;;10.18;9.48;;;;;;;;;;5015142;28;20029;-47
2023/04/03 03:36:53;;;;;;;10.38;9.77;;;;;;;;;;5016893;28;20180;-48
2023/04/03 03:39:19;;;;;;;10.27;9.68;;;;;;;;;;5013683;28;20046;-50
2023/04/03 03:41:44;;;;;;;10.48;9.77;;;;;;;;;;5016720;28;20990;-51
2023/04/03 03:44:09;;;;;;;10.20;9.60;;;;;;;;;;5016422;28;20514;-51
2023/04/03 03:46:35;;;;;;;9.88;9.27;;;;;;;;;;5014286;28;20623;-49
2023/04/03 03:49:00;;;;;;;9.95;9.35;;;;;;;;;;5014979;28;20132;-50
2023/04/03 03:51:26;;;;;;;9.48;8.88;;;;;;;;;;5015673;28;20033;-50
2023/04/03 03:53:51;;;;;;;10.30;9.70;;;;;;;;;;5016622;28;20040;-51
2023/04/03 03:56:16;;;;;;;9.88;9.27;;;;;;;;;;5014023;28;20045;-50
2023/04/03 03:58:42;;;;;;;9.45;8.85;;;;;;;;;;5014612;28;20100;-50
2023/04/03 04:01:07;;;;;;;9.27;8.68;;;;;;;;;;5013008;28;20411;-50
2023/04/03 04:03:33;;;;;;;9.55;8.95;;;;;;;;;;5017019;28;20087;-49
2023/04/03 04:05:58;;;;;;;9.80;9.20;;;;;;;;;;5016888;28;20040;-52
2023/04/03 04:08:24;;;;;;;10.10;9.50;;;;;;;;;;5017212;28;20037;-51
2023/04/03 04:10:50;;;;;;;9.40;8.80;;;;;;;;;;5014480;28;20029;-60
2023/04/03 04:13:15;;;;;;;10.40;9.68;;;;;;;;;;5011714;28;20034;-60
2023/04/03 04:15:41;;;;;;;11.02;10.13;;;;;;;;;;5012576;28;20112;-60
2023/04/03 04:18:06;;;;;;;9.25;8.65;;;;;;;;;;5016991;28;20129;-61
2023/04/03 04:20:32;;;;;;;9.15;8.55;;;;;;;;;;5016597;28;20766;-61
2023/04/03 04:22:57;;;;;;;9.52;8.93;;;;;;;;;;5014423;28;20029;-60
2023/04/03 04:25:23;;;;;;;9.68;9.07;;;;;;;;;;5016621;28;20119;-60
2023/04/03 04:27:48;;;;;;;9.63;9.02;;;;;;;;;;5015413;28;20034;-59
2023/04/03 04:30:14;;;;;;;8.90;8.30;;;;;;;;;;5015836;28;20037;-61
2023/04/03 04:32:39;;;;;;;8.93;8.32;;;;;;;;;;5016141;28;20118;-59
2023/04/03 04:35:05;;;;;;;8.90;8.30;;;;;;;;;;5016642;28;20037;-59
2023/04/03 04:37:31;;;;;;;8.90;8.30;;;;;;;;;;5014344;28;20132;-60
2023/04/03 04:39:56;;;;;;;9.07;8.48;;;;;;;;;;5014572;28;20148;-60
2023/04/03 04:42:21;;;;;;;8.13;7.63;;;;;;;;;;4994762;28;20037;-60
2023/04/03 04:44:47;;;;;;;8.48;7.97;;;;;;;;;;5013626;28;20707;-60
2023/04/03 04:47:12;;;;;;;8.75;8.15;;;;;;;;;;5012087;28;20048;-60
2023/04/03 04:49:37;;;;;;;9.05;8.45;;;;;;;;;;5012205;28;20034;-61
2023/04/03 04:52:03;;;;;;;8.45;7.95;;;;;;;;;;5014455;28;20095;-61
2023/04/03 04:54:28;;;;;;;9.10;8.50;;;;;;;;;;5010276;28;20124;-60
2023/04/03 04:56:54;;;;;;;9.13;8.52;;;;;;;;;;5013230;28;20087;-60
2023/04/03 04:59:19;;;;;;;9.10;8.50;;;;;;;;;;5020136;28;20103;-60
2023/04/03 05:01:45;;;;;;;9.18;8.48;;;;;;;;;;5011008;28;20448;-60
2023/04/03 05:04:12;;;;;;;9.18;8.57;;;;;;;;;;5013245;28;20052;-60
2023/04/03 05:06:38;;;;;;;9.68;9.02;;;;;;;;;;5013424;28;20033;-60
2023/04/03 05:09:03;;;;;;;9.05;8.45;;;;;;;;;;5012112;28;20060;-61
2023/04/03 05:11:29;;;;;;;8.75;8.15;;;;;;;;;;5011752;28;20041;-62
2023/04/03 05:13:55;;;;;;;9.30;8.70;;;;;;;;;;5011913;28;20455;-61
2023/04/03 05:16:20;;;;;;;9.55;8.85;;;;;;;;;;5013900;28;20044;-62
2023/04/03 05:18:46;;;;;;;9.05;8.45;;;;;;;;;;5014296;28;20037;-62
2023/04/03 05:21:11;;;;;;;9.50;8.80;;;;;;;;;;5012689;28;20049;-60
2023/04/03 05:23:36;;;;;;;8.80;8.20;;;;;;;;;;5014901;28;20220;-60
2023/04/03 05:26:02;;;;;;;9.80;9.20;;;;;;;;;;5014078;28;20390;-60
2023/04/03 05:28:27;;;;;;;9.25;8.65;;;;;;;;;;5012597;28;20125;-60
2023/04/03 05:30:55;;;;;;;9.68;9.02;;;;;;;;;;5012426;28;20470;-58
2023/04/03 05:33:20;;;;;;;9.20;8.57;;;;;;;;;;5016432;28;20572;-60
2023/04/03 05:35:45;;;;;;;9.45;8.85;;;;;;;;;;5017685;28;20136;-59
2023/04/03 05:38:11;;;;;;;10.48;9.85;;;;;;;;;;5010752;28;20030;-60
2023/04/03 05:40:37;;;;;;;9.18;8.57;;;;;;;;;;5013122;28;20037;-60
2023/04/03 05:43:02;;;;;;;9.60;9.00;;;;;;;;;;5013901;28;20048;-59
2023/04/03 05:45:28;;;;;;;11.40;10.45;;;;;;;;;;5014102;28;20037;-59
2023/04/03 05:47:53;;;;;;;10.38;9.45;;;;;;;;;;5013082;28;20033;-60
2023/04/03 05:50:19;;;;;;;9.20;8.60;;;;;;;;;;5012142;28;20045;-60
2023/04/03 05:52:46;;;;;;;9.13;8.52;;;;;;;;;;5013393;28;20553;-60
2023/04/03 05:55:12;;;;;;;9.25;8.65;;;;;;;;;;5011949;28;20053;-60
2023/04/03 05:57:37;;;;;;;9.60;9.00;;;;;;;;;;5012034;28;20076;-61
2023/04/03 06:00:06;;;;;;;8.85;8.25;;;;;;;;;;5009986;28;20045;-60
2023/04/03 06:02:31;;;;;;;10.02;9.43;;;;;;;;;;5010752;28;20030;-61
2023/04/03 06:04:57;;;;;;;9.40;8.70;;;;;;;;;;4994653;28;20096;-61
2023/04/03 06:07:26;;;;;;;9.27;8.68;;;;;;;;;;5012530;28;20092;-61
2023/04/03 06:09:52;;;;;;;8.63;8.13;;;;;;;;;;5008617;28;20049;-61
2023/04/03 06:12:18;;;;;;;9.57;8.88;;;;;;;;;;5011324;28;20142;-61
2023/04/03 06:14:43;;;;;;;9.63;9.02;;;;;;;;;;5017965;28;20326;-61
2023/04/03 06:17:10;;;;;;;9.35;8.75;;;;;;;;;;5010890;28;20044;-61
2023/04/03 06:19:36;;;;;;;9.63;9.02;;;;;;;;;;5013245;28;20037;-61
2023/04/03 06:22:01;;;;;;;10.15;9.50;;;;;;;;;;5012173;28;20029;-61
2023/04/03 06:24:27;;;;;;;9.90;9.30;;;;;;;;;;5012434;28;20705;-61
2023/04/03 06:26:53;;;;;;;9.52;8.93;;;;;;;;;;5012049;28;20195;-61
2023/04/03 06:29:19;;;;;;;10.00;9.40;;;;;;;;;;5014182;28;20037;-60
2023/04/03 06:31:45;;;;;;;8.93;8.32;;;;;;;;;;5012722;28;20096;-59
2023/04/03 06:34:12;;;;;;;9.70;9.10;;;;;;;;;;5010554;28;20034;-60
2023/04/03 06:36:38;;;;;;;9.30;8.70;;;;;;;;;;5011872;28;20714;-59
2023/04/03 06:39:04;;;;;;;9.82;9.23;;;;;;;;;;5012789;28;20041;-59
2023/04/03 06:41:30;;;;;;;9.57;8.95;;;;;;;;;;5010656;28;20106;-59
2023/04/03 06:43:58;;;;;;;9.63;8.98;;;;;;;;;;5027259;28;20120;-59
2023/04/03 06:46:25;;;;;;;10.50;9.48;;;;;;;;;;5015040;28;20083;-59
2023/04/03 06:48:51;;;;;;;9.55;8.95;;;;;;;;;;5015715;28;20038;-59
2023/04/03 06:51:23;;;;;;;10.70;9.90;;;;;;;;;;5015616;28;20040;-59
2023/04/03 06:53:51;;;;;;;9.05;8.45;;;;;;;;;;5017837;28;20168;-60
2023/04/03 06:56:17;;;;;;;9.82;9.23;;;;;;;;;;5014461;28;20132;-60
2023/04/03 06:58:43;;;;;;;9.18;8.57;;;;;;;;;;5014938;28;20125;-60
2023/04/03 07:01:10;;;;;;;8.90;8.30;;;;;;;;;;5015726;28;20034;-60
2023/04/03 07:03:36;;;;;;;8.95;8.35;;;;;;;;;;5014546;28;20048;-59
2023/04/03 07:06:04;;;;;;;9.30;8.70;;;;;;;;;;5015267;28;20033;-60
2023/04/03 07:08:29;;;;;;;10.77;10.07;;;;;;;;;;5017622;28;20115;-61
2023/04/03 07:10:55;;;;;;;10.48;9.57;;;;;;;;;;5018378;28;20033;-60
2023/04/03 07:13:20;;;;;;;10.52;9.93;;;;;;;;;;5014155;28;20100;-60
2023/04/03 07:15:45;;;;;;;10.25;9.65;;;;;;;;;;5016353;28;20370;-59
2023/04/03 07:18:11;;;;;;;10.75;10.05;;;;;;;;;;5015321;28;20034;-60
2023/04/03 07:20:36;;;;;;;10.68;9.95;;;;;;;;;;5011495;28;20344;-59
2023/04/03 07:23:02;;;;;;;25.88;9.35;;;;;;;;;;5014159;28;20052;-59
2023/04/03 07:25:28;;;;;;;9.35;8.75;;;;;;;;;;4998346;28;20026;-59
2023/04/03 07:27:54;;;;;;;9.25;8.65;;;;;;;;;;5017640;28;20037;-59
2023/04/03 07:30:20;;;;;;;9.65;9.05;;;;;;;;;;5014355;28;20095;-59
2023/04/03 07:32:46;;;;;;;10.02;9.32;;;;;;;;;;5015075;28;20610;-59
2023/04/03 07:35:12;;;;;;;10.68;9.88;;;;;;;;;;5015964;28;20045;-59
2023/04/03 07:37:37;;;;;;;10.27;9.38;;;;;;;;;;5014468;28;20095;-58
2023/04/03 07:40:03;;;;;;;9.50;8.90;;;;;;;;;;5015606;28;20051;-60
2023/04/03 07:42:29;;;;;;;9.88;9.27;;;;;;;;;;5014323;28;20124;-59
2023/04/03 07:44:55;;;;;;;9.23;8.63;;;;;;;;;;5013699;28;20076;-60
2023/04/03 07:47:20;;;;;;;8.90;8.30;;;;;;;;;;5018407;28;20108;-60
2023/04/03 07:49:46;;;;;;;9.48;8.88;;;;;;;;;;5028871;28;20041;-60
2023/04/03 07:52:14;;;;;;;9.10;8.50;;;;;;;;;;5018087;28;20047;-60
2023/04/03 07:54:40;;;;;;;8.95;8.35;;;;;;;;;;5016764;28;20046;-59
2023/04/03 07:57:05;;;;;;;10.38;9.68;;;;;;;;;;5013704;28;20041;-58
2023/04/03 07:59:30;;;;;;;10.43;9.82;;;;;;;;;;5016189;28;20788;-58
2023/04/03 08:01:56;;;;;;;9.30;8.70;;;;;;;;;;5012070;28;20117;-59
2023/04/03 08:04:22;;;;;;;9.52;8.93;;;;;;;;;;5006146;28;20068;-60
2023/04/03 08:06:47;;;;;;;10.93;10.23;;;;;;;;;;5012665;28;20045;-59
2023/04/03 08:09:15;;;;;;;9.63;9.02;;;;;;;;;;5012799;28;20033;-60
2023/04/03 08:11:40;;;;;;;9.88;9.05;;;;;;;;;;5011992;28;20062;-60
2023/04/03 08:14:06;;;;;;;9.70;9.10;;;;;;;;;;5012803;28;20515;-59
2023/04/03 08:16:31;;;;;;;9.63;9.02;;;;;;;;;;5012780;28;20313;-60
2023/04/03 08:18:56;;;;;;;10.30;9.70;;;;;;;;;;5012468;28;20415;-60
2023/04/03 08:21:22;;;;;;;10.50;9.75;;;;;;;;;;5016556;28;20120;-50
2023/04/03 08:23:50;;;;;;;9.48;8.88;;;;;;;;;;5017323;28;20627;-48
2023/04/03 08:26:17;;;;;;;9.23;8.63;;;;;;;;;;5030992;28;20034;-60
2023/04/03 08:28:43;;;;;;;10.60;9.70;;;;;;;;;;5012217;28;20061;-60
2023/04/03 08:31:11;;;;;;;10.20;9.60;;;;;;;;;;5014402;28;20421;-60
2023/04/03 08:33:38;;;;;;;9.98;9.38;;;;;;;;;;5015915;28;20044;-59
2023/04/03 08:36:05;;;;;;;9.43;8.82;;;;;;;;;;5015976;28;20034;-58
2023/04/03 08:38:31;;;;;;;10.18;9.57;;;;;;;;;;5015885;28;20117;-59
2023/04/03 08:41:04;;;;;;;9.80;9.20;;;;;;;;;;5017484;28;20104;-59
2023/04/03 08:43:46;;;;;;;10.10;9.40;;;;;;;;;;5001478;28;20049;-60
2023/04/03 08:46:16;;;;;;;11.13;10.43;;;;;;;;;;5011352;28;20042;-59
2023/04/03 08:48:43;;;;;;;10.60;10.00;;;;;;;;;;5021685;28;20076;-59
2023/04/03 08:51:15;;;;;;;10.00;9.40;;;;;;;;;;5016600;28;20423;-59
2023/04/03 08:54:10;;;;;;;10.88;10.18;;;;;;;;;;5011546;28;20029;-60
2023/04/03 08:56:36;;;;;;;12.10;11.02;;;;;;;;;;5014727;28;20049;-59
2023/04/03 08:59:09;;;;;;;12.70;11.90;;;;;;;;;;5012386;28;20040;-59
2023/04/03 09:01:40;;;;;;;13.25;12.45;;;;;;;;;;5010762;28;20172;-60
2023/04/03 09:04:15;;;;;;;13.20;12.43;;;;;;;;;;5011839;28;20507;-61
2023/04/03 09:06:46;;;;;;;13.88;13.07;;;;;;;;;;5009973;28;20359;-60
2023/04/03 09:09:44;;;;;;;13.95;13.15;;;;;;;;;;5022504;28;20037;-60
2023/04/03 09:12:27;;;;;;;13.57;12.77;;;;;;;;;;5014252;28;20585;-60
2023/04/03 09:15:14;;;;;;;11.55;10.80;;;;;;;;;;5013906;28;20041;-59
2023/04/03 09:18:17;;;;;;;11.02;10.32;;;;;;;;;;5013689;28;20045;-59
2023/04/03 09:21:13;;;;;;;10.85;10.15;;;;;;;;;;5026779;28;20121;-58
2023/04/03 09:23:51;;;;;;;11.75;11.05;;;;;;;;;;5017855;28;20529;-59
2023/04/03 09:26:21;;;;;;;11.00;10.20;;;;;;;;;;5015548;28;20076;-58
2023/04/03 09:28:46;;;;;;;9.90;9.30;;;;;;;;;;5014116;28;20038;-59
2023/04/03 09:31:23;;;;;;;10.60;9.90;;;;;;;;;;5012006;28;20059;-59
2023/04/03 09:34:01;;;;;;;10.00;9.15;;;;;;;;;;5011114;28;20471;-59
2023/04/03 09:36:42;;;;;;;10.30;9.70;;;;;;;;;;5014686;28;20033;-58
2023/04/03 09:39:10;;;;;;;;;;;;;;;;;;5012991;28;20034;-60
2023/04/03 09:41:35;;;;;;;9.63;9.02;;;;;;;;;;5009204;28;19913;-60
2023/04/03 09:44:01;;;;;;;10.98;10.27;;;;;;;;;;5011582;28;20044;-59
2023/04/03 09:46:32;;;;;;;10.55;9.85;;;;;;;;;;5012701;28;20046;-60
2023/04/03 09:48:59;;;;;;;;;;;;;;;;;;5013501;28;20029;-58
2023/04/03 09:51:27;;;;;;;9.57;8.98;;;;;;;;;;5012917;28;20091;-59
2023/04/03 09:53:53;;;;;;;10.80;10.05;;;;;;;;;;5014029;28;20620;-59
2023/04/03 09:56:21;;;;;;;10.05;9.45;;;;;;;;;;5009900;28;20040;-59
2023/04/03 09:59:07;;;;;;;10.07;9.48;;;;;;;;;;5009755;28;20030;-60
2023/04/03 10:01:41;;;;;;;11.18;10.48;;;;;;;;;;5012944;28;20812;-59
2023/04/03 10:04:13;;;;;;;12.38;11.50;;;;;;;;;;5011687;28;20049;-58
2023/04/03 10:06:43;;;;;;;;;;;;;;;;;;5018692;28;20042;-59
2023/04/03 10:09:29;;;;;;;11.43;10.73;;;;;;;;;;5019214;28;20518;-58
2023/04/03 10:12:01;;;;;;;11.02;10.32;;;;;;;;;;5009125;28;21600;-59
2023/04/03 10:14:28;;;;;;;10.63;9.93;;;;;;;;;;5012213;28;20487;-58
2023/04/03 10:17:03;;;;;;;13.13;12.23;;;;;;;;;;5011425;28;20041;-58
2023/04/03 10:19:42;;;;;;;13.30;12.32;;;;;;;;;;5013470;28;20038;-59
2023/04/03 10:22:41;;;;;;;12.45;11.75;;;;;;;;;;5013362;28;20127;-58
2023/04/03 10:25:20;;;;;;;12.25;11.35;;;;;;;;;;5012768;28;20041;-60
2023/04/03 10:27:57;;;;;;;12.82;11.68;;;;;;;;;;5013291;28;20049;-60
2023/04/03 10:30:33;;;;;;;13.23;12.43;;;;;;;;;;5012632;28;20076;-59
2023/04/03 10:33:24;;;;;;;13.55;12.75;;;;;;;;;;5012762;28;20056;-60
2023/04/03 10:36:22;;;;;;;11.90;11.20;;;;;;;;;;5011310;28;20116;-61
2023/04/03 10:39:26;;;;;;;11.05;10.35;;;;;;;;;;5012735;28;20042;-60
2023/04/03 10:42:10;;;;;;;13.95;13.15;;;;;;;;;;5009688;28;20030;-60
2023/04/03 10:45:01;;;;;;;13.18;12.38;;;;;;;;;;5014255;28;20040;-60
2023/04/03 10:47:40;;;;;;;12.85;12.15;;;;;;;;;;5011084;28;20044;-60
2023/04/03 10:50:43;;;;;;;14.18;13.38;;;;;;;;;;5012801;28;20468;-60
2023/04/03 10:53:11;;;;;;;13.23;12.43;;;;;;;;;;5013168;28;20132;-60
2023/04/03 10:55:46;;;;;;;13.88;12.98;;;;;;;;;;5013495;28;20037;-60
2023/04/03 10:58:34;;;;;;;14.63;13.82;;;;;;;;;;5011118;28;20034;-60
2023/04/03 11:01:07;;;;;;;11.73;11.02;;;;;;;;;;5012597;28;20099;-60
2023/04/03 11:03:40;;;;;;;12.65;11.93;;;;;;;;;;5014664;28;20137;-61
2023/04/03 11:06:10;;;;;;;11.98;11.27;;;;;;;;;;5011523;28;20036;-60
2023/04/03 11:08:48;;;;;;;13.48;12.57;;;;;;;;;;5012631;28;20128;-60
2023/04/03 11:11:21;;;;;;;12.90;12.10;;;;;;;;;;5008908;28;20030;-59
2023/04/03 11:14:05;;;;;;;13.70;12.90;;;;;;;;;;5007564;28;20086;-59
2023/04/03 11:16:36;;;;;;;12.52;11.82;;;;;;;;;;5013147;28;20034;-58
2023/04/03 11:19:29;;;;;;;14.00;13.20;;;;;;;;;;5013874;28;20494;-48
2023/04/03 11:22:00;;;;;;;16.02;12.77;;;;;;;;;;5012683;28;20620;-50
2023/04/03 11:24:29;;;;;;;13.25;12.45;;;;;;;;;;5010504;28;20038;-52
2023/04/03 11:26:57;;;;;;;14.80;13.63;;;;;;;;;;5011437;28;20033;-52
2023/04/03 11:29:29;;;;;;;12.10;11.40;;;;;;;;;;5013449;28;20033;-53
2023/04/03 11:32:11;;;;;;;13.02;12.23;;;;;;;;;;5014250;28;20083;-62
2023/04/03 11:34:46;;;;;;;13.25;12.45;;;;;;;;;;5012349;28;20069;-60
2023/04/03 11:37:39;;;;;;;12.52;11.82;;;;;;;;;;5015198;28;20044;-50
2023/04/03 11:40:19;;;;;;;12.85;12.15;;;;;;;;;;5009938;28;20229;-51
2023/04/03 11:42:49;;;;;;;12.02;11.32;;;;;;;;;;5010304;28;20105;-52
2023/04/03 11:45:19;;;;;;;12.02;11.32;;;;;;;;;;5012407;28;20481;-48
2023/04/03 11:48:07;;;;;;;11.05;10.35;;;;;;;;;;5013441;28;20033;-61
2023/04/03 11:50:42;;;;;;;10.55;9.93;;;;;;;;;;5017718;28;20056;-61
2023/04/03 11:53:07;;;;;;;10.65;10.05;;;;;;;;;;5013233;28;20064;-61
2023/04/03 11:55:33;;;;;;;12.05;11.27;;;;;;;;;;5010912;28;20069;-61
2023/04/03 11:57:58;;;;;;;13.05;12.25;;;;;;;;;;5012442;28;20033;-61
2023/04/03 12:00:51;;;;;;;13.07;12.32;;;;;;;;;;5013165;28;20136;-61
2023/04/03 12:03:29;;;;;;;11.38;10.68;;;;;;;;;;5014728;28;20045;-61
2023/04/03 12:06:16;;;;;;;13.80;12.63;;;;;;;;;;5015766;28;20069;-61
2023/04/03 12:08:42;;;;;;;12.55;11.85;;;;;;;;;;5014780;28;20061;-60
2023/04/03 12:11:11;;;;;;;11.93;11.23;;;;;;;;;;5022733;28;20076;-61
2023/04/03 12:13:49;;;;;;;16.27;15.38;;;;;;;;;;5011434;28;20088;-60
2023/04/03 12:16:19;;;;;;;17.08;16.15;;;;;;;;;;5009977;28;20105;-61
2023/04/03 12:18:58;;;;;;;19.60;18.50;;;;;;;;;;5012080;28;20113;-60
2023/04/03 12:21:43;;;;;;;19.05;17.98;;;;;;;;;;5012108;28;20088;-61
2023/04/03 12:24:09;;;;;;;21.17;20.05;;;;;;;;;;5011646;28;20845;-59
2023/04/03 12:27:01;;;;;;;21.00;19.90;;;;;;;;;;5014472;28;20033;-60
2023/04/03 12:29:38;;;;;;;20.40;19.30;;;;;;;;;;5014776;28;20029;-60
2023/04/03 12:32:12;;;;;;;19.50;18.40;;;;;;;;;;5010902;28;20600;-59
2023/04/03 12:35:15;;;;;;;22.60;21.40;;;;;;;;;;5015364;28;20080;-59
2023/04/03 12:38:10;;;;;;;21.95;20.67;;;;;;;;;;5014324;28;20037;-60
2023/04/03 12:40:49;;;;;;;21.17;20.08;;;;;;;;;;5012342;28;20045;-59
2023/04/03 12:43:34;;;;;;;19.67;18.58;;;;;;;;;;5012589;28;20044;-59
2023/04/03 12:46:08;;;;;;;18.50;17.50;;;;;;;;;;5009904;28;20049;-60
2023/04/03 12:48:46;;;;;;;20.85;19.65;;;;;;;;;;5009190;28;20037;-60
2023/04/03 12:51:27;;;;;;;18.98;17.95;;;;;;;;;;5011790;28;20037;-59
2023/04/03 12:53:59;;;;;;;19.70;18.58;;;;;;;;;;5011299;28;20033;-60
2023/04/03 12:56:30;;;;;;;16.55;15.65;;;;;;;;;;5015572;28;20700;-60
2023/04/03 12:59:14;;;;;;;16.52;15.63;;;;;;;;;;5012000;28;20574;-60
2023/04/03 13:01:40;;;;;;;17.13;16.13;;;;;;;;;;5011525;28;20546;-60
2023/04/03 13:04:06;;;;;;;17.95;16.75;;;;;;;;;;5010401;28;20099;-61
2023/04/03 13:06:38;;;;;;;18.77;17.77;;;;;;;;;;5010461;28;20092;-59
2023/04/03 13:09:04;;;;;;;20.85;19.73;;;;;;;;;;5011753;28;20053;-60
2023/04/03 13:11:38;;;;;;;18.67;17.58;;;;;;;;;;5011610;28;20038;-60
2023/04/03 13:14:13;;;;;;;18.83;17.80;;;;;;;;;;5014658;28;20026;-60
2023/04/03 13:16:41;;;;;;;16.55;15.65;;;;;;;;;;5013404;28;20052;-59
2023/04/03 13:19:16;;;;;;;15.98;15.07;;;;;;;;;;5012189;28;20034;-59
2023/04/03 13:21:41;;;;;;;15.77;14.88;;;;;;;;;;4998342;28;20600;-60
2023/04/03 13:24:09;;;;;;;16.73;15.63;;;;;;;;;;5011780;28;20312;-60
2023/04/03 13:26:34;;;;;;;16.55;15.65;;;;;;;;;;5015547;28;20115;-60
2023/04/03 13:29:04;;;;;;;18.42;17.42;;;;;;;;;;5009276;28;20129;-59
2023/04/03 13:31:32;;;;;;;17.20;16.20;;;;;;;;;;5009006;28;20155;-59
2023/04/03 13:34:09;;;;;;;16.90;16.00;;;;;;;;;;5008650;28;20061;-60
2023/04/03 13:36:38;;;;;;;19.90;18.80;;;;;;;;;;5012098;28;20029;-60
2023/04/03 13:39:22;;;;;;;19.38;18.30;;;;;;;;;;5015095;28;20108;-60
2023/04/03 13:41:57;;;;;;;17.67;16.67;;;;;;;;;;5012696;28;20576;-59
2023/04/03 13:44:22;;;;;;;15.55;14.65;;;;;;;;;;5014766;28;20180;-59
2023/04/03 13:46:55;;;;;;;16.23;15.32;;;;;;;;;;5013428;28;20116;-59
2023/04/03 13:49:36;;;;;;;15.40;14.50;;;;;;;;;;5011140;28;20791;-59
2023/04/03 13:52:21;;;;;;;;;;;;;;;;;;5015261;28;20029;-59
2023/04/03 13:54:51;;;;;;;16.10;15.20;;;;;;;;;;5012013;28;19917;-60
2023/04/03 13:57:16;;;;;;;17.58;16.48;;;;;;;;;;5014283;28;20042;-59
2023/04/03 13:59:42;;;;;;;17.65;16.50;;;;;;;;;;5016587;28;20128;-59
2023/04/03 14:02:08;;;;;;;18.88;17.80;;;;;;;;;;5011070;28;20224;-59
2023/04/03 14:04:47;;;;;;;17.90;16.90;;;;;;;;;;5007405;28;20065;-59
2023/04/03 14:07:15;;;;;;;19.80;18.70;;;;;;;;;;5012303;28;20732;-59
2023/04/03 14:09:41;;;;;;;18.70;17.65;;;;;;;;;;5009782;28;20109;-60
2023/04/03 14:12:14;;;;;;;19.20;18.15;;;;;;;;;;5011026;28;20567;-60
2023/04/03 14:14:41;;;;;;;17.65;16.65;;;;;;;;;;5013075;28;20347;-60
2023/04/03 14:17:18;;;;;;;19.80;18.70;;;;;;;;;;5011491;28;20540;-60
2023/04/03 14:19:45;;;;;;;18.23;17.23;;;;;;;;;;5011875;28;20033;-60
2023/04/03 14:22:22;;;;;;;17.15;16.15;;;;;;;;;;5020538;28;20034;-59
2023/04/03 14:24:47;;;;;;;20.73;19.63;;;;;;;;;;5011285;28;20030;-59
2023/04/03 14:27:23;;;;;;;17.63;16.63;;;;;;;;;;5012221;28;20778;-59
2023/04/03 14:29:50;;;;;;;17.48;16.48;;;;;;;;;;5008602;28;20038;-60
2023/04/03 14:32:18;;;;;;;16.98;15.98;;;;;;;;;;5011428;28;20471;-59
2023/04/03 14:34:44;;;;;;;17.98;16.98;;;;;;;;;;5011780;28;20049;-60
2023/04/03 14:37:13;;;;;;;16.50;15.55;;;;;;;;;;5013182;28;20042;-59
2023/04/03 14:39:39;;;;;;;20.02;18.92;;;;;;;;;;5011642;28;20065;-58
2023/04/03 14:42:05;;;;;;;17.38;16.27;;;;;;;;;;5011833;28;20570;-59
2023/04/03 14:44:30;;;;;;;17.23;16.23;;;;;;;;;;5013833;28;20451;-60
2023/04/03 14:46:56;;;;;;;16.70;15.70;;;;;;;;;;5011672;28;20026;-60